sensor_id;sensor_type;location;lat;lon;timestamp;P1;durP1;ratioP1;P2;durP2;ratioP2
45296;SDS011;31040;51.622;10.420;2023-02-24T00:01:16;8.32;;;3.78;;
45296;SDS011;31040;51.622;10.420;2023-02-24T00:03:52;8.43;;;4.00;;
45296;SDS011;31040;51.622;10.420;2023-02-24T00:06:25;8.30;;;4.63;;
45296;SDS011;31040;51.622;10.420;2023-02-24T00:11:31;11.15;;;4.82;;
45296;SDS011;31040;51.622;10.420;2023-02-24T00:13:58;11.98;;;5.40;;
45296;SDS011;31040;51.622;10.420;2023-02-24T00:16:25;10.60;;;4.20;;
45296;SDS011;31040;51.622;10.420;2023-02-24T00:18:53;14.43;;;5.00;;
45296;SDS011;31040;51.622;10.420;2023-02-24T00:21:20;14.85;;;4.68;;
45296;SDS011;31040;51.622;10.420;2023-02-24T00:23:48;10.65;;;4.57;;
45296;SDS011;31040;51.622;10.420;2023-02-24T00:26:15;12.15;;;4.75;;
45296;SDS011;31040;51.622;10.420;2023-02-24T00:28:43;9.45;;;4.28;;
45296;SDS011;31040;51.622;10.420;2023-02-24T00:31:11;13.52;;;4.45;;
45296;SDS011;31040;51.622;10.420;2023-02-24T00:33:40;8.77;;;4.30;;
45296;SDS011;31040;51.622;10.420;2023-02-24T00:36:11;9.88;;;4.22;;
45296;SDS011;31040;51.622;10.420;2023-02-24T00:38:39;18.02;;;4.20;;
45296;SDS011;31040;51.622;10.420;2023-02-24T00:41:18;10.52;;;4.03;;
45296;SDS011;31040;51.622;10.420;2023-02-24T00:43:48;13.63;;;5.15;;
45296;SDS011;31040;51.622;10.420;2023-02-24T00:46:16;11.70;;;4.50;;
45296;SDS011;31040;51.622;10.420;2023-02-24T00:48:44;10.23;;;3.95;;
45296;SDS011;31040;51.622;10.420;2023-02-24T00:51:13;13.93;;;4.38;;
45296;SDS011;31040;51.622;10.420;2023-02-24T00:53:42;12.88;;;4.25;;
45296;SDS011;31040;51.622;10.420;2023-02-24T00:56:10;7.68;;;3.90;;
45296;SDS011;31040;51.622;10.420;2023-02-24T00:58:39;14.00;;;3.95;;
45296;SDS011;31040;51.622;10.420;2023-02-24T01:01:18;10.00;;;3.60;;
45296;SDS011;31040;51.622;10.420;2023-02-24T01:03:47;6.70;;;2.97;;
45296;SDS011;31040;51.622;10.420;2023-02-24T01:06:15;8.48;;;3.80;;
45296;SDS011;31040;51.622;10.420;2023-02-24T01:08:46;7.03;;;2.88;;
45296;SDS011;31040;51.622;10.420;2023-02-24T01:11:13;11.50;;;3.65;;
45296;SDS011;31040;51.622;10.420;2023-02-24T01:14:02;8.95;;;2.78;;
45296;SDS011;31040;51.622;10.420;2023-02-24T01:16:29;10.20;;;3.00;;
45296;SDS011;31040;51.622;10.420;2023-02-24T01:18:57;8.60;;;3.08;;
45296;SDS011;31040;51.622;10.420;2023-02-24T01:21:24;7.88;;;2.30;;
45296;SDS011;31040;51.622;10.420;2023-02-24T01:23:51;10.63;;;2.47;;
45296;SDS011;31040;51.622;10.420;2023-02-24T01:26:19;6.63;;;2.35;;
45296;SDS011;31040;51.622;10.420;2023-02-24T01:28:46;9.55;;;2.83;;
45296;SDS011;31040;51.622;10.420;2023-02-24T01:31:14;16.00;;;4.55;;
45296;SDS011;31040;51.622;10.420;2023-02-24T01:33:46;8.48;;;3.40;;
45296;SDS011;31040;51.622;10.420;2023-02-24T01:36:16;8.73;;;2.97;;
45296;SDS011;31040;51.622;10.420;2023-02-24T01:38:43;6.65;;;2.55;;
45296;SDS011;31040;51.622;10.420;2023-02-24T01:41:12;5.93;;;2.22;;
45296;SDS011;31040;51.622;10.420;2023-02-24T01:43:54;6.22;;;2.58;;
45296;SDS011;31040;51.622;10.420;2023-02-24T01:46:24;8.63;;;2.05;;
45296;SDS011;31040;51.622;10.420;2023-02-24T01:48:53;4.57;;;1.38;;
45296;SDS011;31040;51.622;10.420;2023-02-24T01:51:21;7.25;;;1.88;;
45296;SDS011;31040;51.622;10.420;2023-02-24T01:53:49;13.02;;;2.50;;
45296;SDS011;31040;51.622;10.420;2023-02-24T01:56:16;10.57;;;3.30;;
45296;SDS011;31040;51.622;10.420;2023-02-24T01:58:44;6.47;;;2.45;;
45296;SDS011;31040;51.622;10.420;2023-02-24T02:01:11;10.63;;;3.30;;
45296;SDS011;31040;51.622;10.420;2023-02-24T02:03:40;11.70;;;3.03;;
45296;SDS011;31040;51.622;10.420;2023-02-24T02:06:08;8.25;;;2.65;;
45296;SDS011;31040;51.622;10.420;2023-02-24T02:08:37;11.57;;;2.97;;
45296;SDS011;31040;51.622;10.420;2023-02-24T02:11:06;6.35;;;1.77;;
45296;SDS011;31040;51.622;10.420;2023-02-24T02:13:34;8.68;;;2.17;;
45296;SDS011;31040;51.622;10.420;2023-02-24T02:21:09;9.25;;;2.10;;
45296;SDS011;31040;51.622;10.420;2023-02-24T02:36:53;12.38;;;3.63;;
45296;SDS011;31040;51.622;10.420;2023-02-24T02:44:52;8.80;;;3.50;;
45296;SDS011;31040;51.622;10.420;2023-02-24T02:47:29;10.98;;;2.65;;
45296;SDS011;31040;51.622;10.420;2023-02-24T02:50:02;11.95;;;4.10;;
45296;SDS011;31040;51.622;10.420;2023-02-24T02:52:41;7.70;;;3.03;;
45296;SDS011;31040;51.622;10.420;2023-02-24T02:55:10;8.82;;;2.80;;
45296;SDS011;31040;51.622;10.420;2023-02-24T02:57:42;12.88;;;3.35;;
45296;SDS011;31040;51.622;10.420;2023-02-24T03:00:16;7.63;;;2.60;;
45296;SDS011;31040;51.622;10.420;2023-02-24T03:02:50;16.67;;;3.38;;
45296;SDS011;31040;51.622;10.420;2023-02-24T03:05:19;13.95;;;3.05;;
45296;SDS011;31040;51.622;10.420;2023-02-24T03:07:48;7.10;;;2.63;;
45296;SDS011;31040;51.622;10.420;2023-02-24T03:10:20;8.70;;;2.63;;
45296;SDS011;31040;51.622;10.420;2023-02-24T03:12:50;8.65;;;3.30;;
45296;SDS011;31040;51.622;10.420;2023-02-24T03:15:19;14.57;;;3.83;;
45296;SDS011;31040;51.622;10.420;2023-02-24T03:17:48;9.18;;;3.22;;
45296;SDS011;31040;51.622;10.420;2023-02-24T03:20:22;9.82;;;3.28;;
45296;SDS011;31040;51.622;10.420;2023-02-24T03:25:25;13.95;;;2.60;;
45296;SDS011;31040;51.622;10.420;2023-02-24T03:27:56;8.45;;;3.00;;
45296;SDS011;31040;51.622;10.420;2023-02-24T03:30:28;11.50;;;2.55;;
45296;SDS011;31040;51.622;10.420;2023-02-24T03:33:00;19.17;;;4.05;;
45296;SDS011;31040;51.622;10.420;2023-02-24T03:35:29;16.92;;;3.70;;
45296;SDS011;31040;51.622;10.420;2023-02-24T03:37:57;17.13;;;3.58;;
45296;SDS011;31040;51.622;10.420;2023-02-24T03:40:25;11.60;;;3.05;;
45296;SDS011;31040;51.622;10.420;2023-02-24T03:43:00;11.40;;;2.92;;
45296;SDS011;31040;51.622;10.420;2023-02-24T03:45:32;8.90;;;2.65;;
45296;SDS011;31040;51.622;10.420;2023-02-24T03:48:00;13.02;;;3.70;;
45296;SDS011;31040;51.622;10.420;2023-02-24T03:50:28;9.05;;;2.80;;
45296;SDS011;31040;51.622;10.420;2023-02-24T03:53:14;14.15;;;3.33;;
45296;SDS011;31040;51.622;10.420;2023-02-24T03:58:17;14.55;;;3.20;;
45296;SDS011;31040;51.622;10.420;2023-02-24T04:08:33;20.70;;;5.35;;
45296;SDS011;31040;51.622;10.420;2023-02-24T04:11:47;14.40;;;3.33;;
45296;SDS011;31040;51.622;10.420;2023-02-24T04:13:57;11.20;;;3.20;;
45296;SDS011;31040;51.622;10.420;2023-02-24T04:16:33;13.68;;;3.53;;
45296;SDS011;31040;51.622;10.420;2023-02-24T04:19:03;11.02;;;3.90;;
45296;SDS011;31040;51.622;10.420;2023-02-24T04:21:31;14.63;;;3.50;;
45296;SDS011;31040;51.622;10.420;2023-02-24T04:23:59;12.30;;;3.03;;
45296;SDS011;31040;51.622;10.420;2023-02-24T04:26:31;16.85;;;5.18;;
45296;SDS011;31040;51.622;10.420;2023-02-24T04:29:01;13.30;;;4.68;;
45296;SDS011;31040;51.622;10.420;2023-02-24T04:31:29;10.90;;;3.47;;
45296;SDS011;31040;51.622;10.420;2023-02-24T04:33:57;14.30;;;4.13;;
45296;SDS011;31040;51.622;10.420;2023-02-24T04:36:25;10.55;;;3.88;;
45296;SDS011;31040;51.622;10.420;2023-02-24T04:38:52;15.48;;;4.63;;
45296;SDS011;31040;51.622;10.420;2023-02-24T04:41:20;17.08;;;4.93;;
45296;SDS011;31040;51.622;10.420;2023-02-24T04:43:48;12.55;;;4.53;;
45296;SDS011;31040;51.622;10.420;2023-02-24T04:46:19;16.45;;;4.82;;
45296;SDS011;31040;51.622;10.420;2023-02-24T04:48:48;13.38;;;4.43;;
45296;SDS011;31040;51.622;10.420;2023-02-24T04:51:16;14.27;;;4.30;;
45296;SDS011;31040;51.622;10.420;2023-02-24T04:53:48;17.25;;;5.63;;
45296;SDS011;31040;51.622;10.420;2023-02-24T04:56:15;14.95;;;4.97;;
45296;SDS011;31040;51.622;10.420;2023-02-24T04:58:43;15.07;;;4.43;;
45296;SDS011;31040;51.622;10.420;2023-02-24T05:01:11;16.05;;;6.53;;
45296;SDS011;31040;51.622;10.420;2023-02-24T05:03:39;16.90;;;5.10;;
45296;SDS011;31040;51.622;10.420;2023-02-24T05:06:15;19.13;;;5.20;;
45296;SDS011;31040;51.622;10.420;2023-02-24T05:08:43;12.90;;;3.40;;
45296;SDS011;31040;51.622;10.420;2023-02-24T05:11:14;8.40;;;3.47;;
45296;SDS011;31040;51.622;10.420;2023-02-24T05:13:41;15.35;;;5.25;;
45296;SDS011;31040;51.622;10.420;2023-02-24T05:16:13;12.68;;;3.65;;
45296;SDS011;31040;51.622;10.420;2023-02-24T05:18:41;12.23;;;3.15;;
45296;SDS011;31040;51.622;10.420;2023-02-24T05:21:10;10.60;;;3.00;;
45296;SDS011;31040;51.622;10.420;2023-02-24T05:23:56;13.25;;;3.45;;
45296;SDS011;31040;51.622;10.420;2023-02-24T05:26:24;11.55;;;3.38;;
45296;SDS011;31040;51.622;10.420;2023-02-24T05:28:52;14.73;;;4.28;;
45296;SDS011;31040;51.622;10.420;2023-02-24T05:31:23;12.32;;;3.42;;
45296;SDS011;31040;51.622;10.420;2023-02-24T05:33:55;15.18;;;3.67;;
45296;SDS011;31040;51.622;10.420;2023-02-24T05:36:23;14.10;;;4.38;;
45296;SDS011;31040;51.622;10.420;2023-02-24T05:38:53;11.93;;;3.38;;
45296;SDS011;31040;51.622;10.420;2023-02-24T05:41:24;12.48;;;3.33;;
45296;SDS011;31040;51.622;10.420;2023-02-24T05:43:58;18.85;;;4.32;;
45296;SDS011;31040;51.622;10.420;2023-02-24T05:46:28;12.43;;;4.13;;
45296;SDS011;31040;51.622;10.420;2023-02-24T05:48:58;17.73;;;4.65;;
45296;SDS011;31040;51.622;10.420;2023-02-24T05:51:27;13.15;;;3.45;;
45296;SDS011;31040;51.622;10.420;2023-02-24T05:54:04;13.77;;;4.30;;
45296;SDS011;31040;51.622;10.420;2023-02-24T05:56:32;9.50;;;3.53;;
45296;SDS011;31040;51.622;10.420;2023-02-24T05:59:00;15.60;;;3.83;;
45296;SDS011;31040;51.622;10.420;2023-02-24T06:01:31;15.73;;;5.00;;
45296;SDS011;31040;51.622;10.420;2023-02-24T06:04:02;13.75;;;4.20;;
45296;SDS011;31040;51.622;10.420;2023-02-24T06:09:04;10.93;;;3.97;;
45296;SDS011;31040;51.622;10.420;2023-02-24T06:11:36;13.70;;;4.15;;
45296;SDS011;31040;51.622;10.420;2023-02-24T06:14:04;9.75;;;3.83;;
45296;SDS011;31040;51.622;10.420;2023-02-24T06:16:33;8.63;;;3.20;;
45296;SDS011;31040;51.622;10.420;2023-02-24T06:19:00;11.65;;;3.35;;
45296;SDS011;31040;51.622;10.420;2023-02-24T06:21:27;12.05;;;3.17;;
45296;SDS011;31040;51.622;10.420;2023-02-24T06:23:55;8.70;;;3.40;;
45296;SDS011;31040;51.622;10.420;2023-02-24T06:26:23;12.43;;;3.40;;
45296;SDS011;31040;51.622;10.420;2023-02-24T06:28:58;19.35;;;5.03;;
45296;SDS011;31040;51.622;10.420;2023-02-24T06:31:26;10.75;;;3.88;;
45296;SDS011;31040;51.622;10.420;2023-02-24T06:33:54;12.27;;;3.90;;
45296;SDS011;31040;51.622;10.420;2023-02-24T06:36:22;10.82;;;3.53;;
45296;SDS011;31040;51.622;10.420;2023-02-24T06:38:49;8.23;;;3.80;;
45296;SDS011;31040;51.622;10.420;2023-02-24T06:41:17;24.40;;;5.13;;
45296;SDS011;31040;51.622;10.420;2023-02-24T06:43:45;10.45;;;3.60;;
45296;SDS011;31040;51.622;10.420;2023-02-24T06:46:14;13.40;;;3.80;;
45296;SDS011;31040;51.622;10.420;2023-02-24T06:48:41;12.02;;;3.60;;
45296;SDS011;31040;51.622;10.420;2023-02-24T06:51:10;10.43;;;3.22;;
45296;SDS011;31040;51.622;10.420;2023-02-24T06:53:43;15.43;;;3.40;;
45296;SDS011;31040;51.622;10.420;2023-02-24T06:56:12;15.27;;;3.20;;
45296;SDS011;31040;51.622;10.420;2023-02-24T06:58:41;10.63;;;3.97;;
45296;SDS011;31040;51.622;10.420;2023-02-24T07:01:12;9.85;;;4.32;;
45296;SDS011;31040;51.622;10.420;2023-02-24T07:03:40;9.27;;;3.05;;
45296;SDS011;31040;51.622;10.420;2023-02-24T07:06:33;11.50;;;3.35;;
45296;SDS011;31040;51.622;10.420;2023-02-24T07:09:01;11.02;;;3.72;;
45296;SDS011;31040;51.622;10.420;2023-02-24T07:11:39;14.43;;;4.10;;
45296;SDS011;31040;51.622;10.420;2023-02-24T07:14:07;19.20;;;4.72;;
45296;SDS011;31040;51.622;10.420;2023-02-24T07:16:35;9.50;;;3.45;;
45296;SDS011;31040;51.622;10.420;2023-02-24T07:19:03;21.40;;;7.63;;
45296;SDS011;31040;51.622;10.420;2023-02-24T07:21:37;15.77;;;4.20;;
45296;SDS011;31040;51.622;10.420;2023-02-24T07:24:14;12.88;;;4.00;;
45296;SDS011;31040;51.622;10.420;2023-02-24T07:26:54;12.35;;;4.03;;
45296;SDS011;31040;51.622;10.420;2023-02-24T07:29:22;18.23;;;4.00;;
45296;SDS011;31040;51.622;10.420;2023-02-24T07:31:50;14.02;;;4.22;;
45296;SDS011;31040;51.622;10.420;2023-02-24T07:34:21;12.38;;;3.60;;
45296;SDS011;31040;51.622;10.420;2023-02-24T07:36:50;12.73;;;5.47;;
45296;SDS011;31040;51.622;10.420;2023-02-24T07:39:18;12.32;;;4.55;;
45296;SDS011;31040;51.622;10.420;2023-02-24T07:41:45;12.77;;;4.68;;
45296;SDS011;31040;51.622;10.420;2023-02-24T07:44:18;19.63;;;5.85;;
45296;SDS011;31040;51.622;10.420;2023-02-24T07:46:46;11.52;;;4.18;;
45296;SDS011;31040;51.622;10.420;2023-02-24T07:49:18;23.77;;;6.53;;
45296;SDS011;31040;51.622;10.420;2023-02-24T07:51:46;22.27;;;4.82;;
45296;SDS011;31040;51.622;10.420;2023-02-24T07:54:19;14.10;;;4.53;;
45296;SDS011;31040;51.622;10.420;2023-02-24T07:56:46;13.52;;;3.60;;
45296;SDS011;31040;51.622;10.420;2023-02-24T07:59:23;12.65;;;4.00;;
45296;SDS011;31040;51.622;10.420;2023-02-24T08:01:50;13.85;;;3.83;;
45296;SDS011;31040;51.622;10.420;2023-02-24T08:04:24;10.55;;;3.45;;
45296;SDS011;31040;51.622;10.420;2023-02-24T08:06:52;22.00;;;6.05;;
45296;SDS011;31040;51.622;10.420;2023-02-24T08:09:32;17.60;;;4.60;;
45296;SDS011;31040;51.622;10.420;2023-02-24T08:12:19;9.32;;;4.30;;
45296;SDS011;31040;51.622;10.420;2023-02-24T08:14:48;8.77;;;2.88;;
45296;SDS011;31040;51.622;10.420;2023-02-24T08:17:17;10.05;;;3.15;;
45296;SDS011;31040;51.622;10.420;2023-02-24T08:19:46;10.30;;;3.00;;
45296;SDS011;31040;51.622;10.420;2023-02-24T08:22:14;12.55;;;3.33;;
45296;SDS011;31040;51.622;10.420;2023-02-24T08:27:22;11.05;;;3.40;;
45296;SDS011;31040;51.622;10.420;2023-02-24T08:29:54;14.20;;;3.42;;
45296;SDS011;31040;51.622;10.420;2023-02-24T08:35:03;9.68;;;3.10;;
45296;SDS011;31040;51.622;10.420;2023-02-24T08:37:32;9.95;;;3.65;;
45296;SDS011;31040;51.622;10.420;2023-02-24T08:40:06;10.68;;;4.53;;
45296;SDS011;31040;51.622;10.420;2023-02-24T08:42:34;13.23;;;4.05;;
45296;SDS011;31040;51.622;10.420;2023-02-24T08:45:01;12.32;;;3.15;;
45296;SDS011;31040;51.622;10.420;2023-02-24T08:47:28;7.68;;;3.00;;
45296;SDS011;31040;51.622;10.420;2023-02-24T08:49:56;12.07;;;3.67;;
45296;SDS011;31040;51.622;10.420;2023-02-24T08:52:27;7.25;;;2.70;;
45296;SDS011;31040;51.622;10.420;2023-02-24T08:54:57;11.00;;;3.75;;
45296;SDS011;31040;51.622;10.420;2023-02-24T08:57:26;11.57;;;3.10;;
45296;SDS011;31040;51.622;10.420;2023-02-24T08:59:54;6.95;;;3.30;;
45296;SDS011;31040;51.622;10.420;2023-02-24T09:02:24;6.10;;;2.63;;
45296;SDS011;31040;51.622;10.420;2023-02-24T09:04:57;6.43;;;3.25;;
45296;SDS011;31040;51.622;10.420;2023-02-24T09:07:25;12.05;;;3.28;;
45296;SDS011;31040;51.622;10.420;2023-02-24T09:09:54;10.50;;;2.60;;
45296;SDS011;31040;51.622;10.420;2023-02-24T09:12:23;11.35;;;3.10;;
45296;SDS011;31040;51.622;10.420;2023-02-24T09:14:52;11.10;;;3.63;;
45296;SDS011;31040;51.622;10.420;2023-02-24T09:17:24;11.68;;;2.60;;
45296;SDS011;31040;51.622;10.420;2023-02-24T09:20:06;9.73;;;2.60;;
45296;SDS011;31040;51.622;10.420;2023-02-24T09:22:56;7.85;;;2.90;;
45296;SDS011;31040;51.622;10.420;2023-02-24T09:25:29;11.40;;;3.08;;
45296;SDS011;31040;51.622;10.420;2023-02-24T09:28:08;10.25;;;3.20;;
45296;SDS011;31040;51.622;10.420;2023-02-24T09:30:38;10.95;;;3.28;;
45296;SDS011;31040;51.622;10.420;2023-02-24T09:33:17;8.77;;;3.92;;
45296;SDS011;31040;51.622;10.420;2023-02-24T09:35:50;11.27;;;2.67;;
45296;SDS011;31040;51.622;10.420;2023-02-24T09:38:21;9.75;;;2.65;;
45296;SDS011;31040;51.622;10.420;2023-02-24T09:41:14;9.88;;;3.00;;
45296;SDS011;31040;51.622;10.420;2023-02-24T09:43:56;9.18;;;3.95;;
45296;SDS011;31040;51.622;10.420;2023-02-24T09:46:30;10.35;;;2.75;;
45296;SDS011;31040;51.622;10.420;2023-02-24T09:49:16;7.30;;;2.97;;
45296;SDS011;31040;51.622;10.420;2023-02-24T09:51:44;12.43;;;3.30;;
45296;SDS011;31040;51.622;10.420;2023-02-24T09:54:19;8.45;;;2.88;;
45296;SDS011;31040;51.622;10.420;2023-02-24T09:56:57;12.93;;;3.78;;
45296;SDS011;31040;51.622;10.420;2023-02-24T09:59:37;3.67;;;2.78;;
45296;SDS011;31040;51.622;10.420;2023-02-24T10:07:46;9.00;;;2.42;;
45296;SDS011;31040;51.622;10.420;2023-02-24T10:10:17;5.05;;;2.08;;
45296;SDS011;31040;51.622;10.420;2023-02-24T10:15:43;10.23;;;3.58;;
45296;SDS011;31040;51.622;10.420;2023-02-24T10:20:55;5.38;;;1.90;;
45296;SDS011;31040;51.622;10.420;2023-02-24T10:23:43;3.65;;;1.52;;
45296;SDS011;31040;51.622;10.420;2023-02-24T10:26:39;4.40;;;2.28;;
45296;SDS011;31040;51.622;10.420;2023-02-24T10:34:32;4.43;;;2.33;;
45296;SDS011;31040;51.622;10.420;2023-02-24T10:37:01;3.70;;;2.30;;
45296;SDS011;31040;51.622;10.420;2023-02-24T10:39:34;5.07;;;2.17;;
45296;SDS011;31040;51.622;10.420;2023-02-24T10:42:03;4.97;;;2.13;;
45296;SDS011;31040;51.622;10.420;2023-02-24T10:44:43;5.68;;;2.17;;
45296;SDS011;31040;51.622;10.420;2023-02-24T10:47:29;8.43;;;3.42;;
45296;SDS011;31040;51.622;10.420;2023-02-24T10:49:57;5.25;;;2.65;;
45296;SDS011;31040;51.622;10.420;2023-02-24T10:53:00;6.07;;;2.90;;
45296;SDS011;31040;51.622;10.420;2023-02-24T10:55:41;4.10;;;2.33;;
45296;SDS011;31040;51.622;10.420;2023-02-24T10:58:10;8.05;;;2.47;;
45296;SDS011;31040;51.622;10.420;2023-02-24T11:00:43;8.10;;;2.78;;
45296;SDS011;31040;51.622;10.420;2023-02-24T11:03:47;9.60;;;2.80;;
45296;SDS011;31040;51.622;10.420;2023-02-24T11:09:15;7.82;;;3.67;;
45296;SDS011;31040;51.622;10.420;2023-02-24T11:17:36;9.52;;;4.38;;
45296;SDS011;31040;51.622;10.420;2023-02-24T11:20:06;13.40;;;4.97;;
45296;SDS011;31040;51.622;10.420;2023-02-24T11:22:40;6.47;;;3.30;;
45296;SDS011;31040;51.622;10.420;2023-02-24T11:25:25;11.40;;;4.32;;
45296;SDS011;31040;51.622;10.420;2023-02-24T11:27:53;26.40;;;6.85;;
45296;SDS011;31040;51.622;10.420;2023-02-24T11:30:24;6.50;;;4.30;;
45296;SDS011;31040;51.622;10.420;2023-02-24T11:33:05;6.70;;;3.85;;
45296;SDS011;31040;51.622;10.420;2023-02-24T11:35:37;5.95;;;3.90;;
45296;SDS011;31040;51.622;10.420;2023-02-24T11:38:13;10.57;;;4.05;;
45296;SDS011;31040;51.622;10.420;2023-02-24T11:40:45;10.63;;;4.38;;
45296;SDS011;31040;51.622;10.420;2023-02-24T11:43:15;7.75;;;3.67;;
45296;SDS011;31040;51.622;10.420;2023-02-24T11:46:01;10.13;;;4.32;;
45296;SDS011;31040;51.622;10.420;2023-02-24T11:48:38;10.70;;;5.18;;
45296;SDS011;31040;51.622;10.420;2023-02-24T11:53:48;8.60;;;4.28;;
45296;SDS011;31040;51.622;10.420;2023-02-24T12:01:38;6.57;;;4.45;;
45296;SDS011;31040;51.622;10.420;2023-02-24T12:04:16;6.68;;;3.78;;
45296;SDS011;31040;51.622;10.420;2023-02-24T12:07:06;14.48;;;6.13;;
45296;SDS011;31040;51.622;10.420;2023-02-24T12:09:52;7.13;;;4.93;;
45296;SDS011;31040;51.622;10.420;2023-02-24T12:12:51;11.10;;;5.00;;
45296;SDS011;31040;51.622;10.420;2023-02-24T12:15:22;13.15;;;5.45;;
45296;SDS011;31040;51.622;10.420;2023-02-24T12:20:47;11.70;;;5.78;;
45296;SDS011;31040;51.622;10.420;2023-02-24T12:26:10;8.32;;;4.35;;
45296;SDS011;31040;51.622;10.420;2023-02-24T12:28:44;11.48;;;4.28;;
45296;SDS011;31040;51.622;10.420;2023-02-24T12:51:40;10.77;;;6.53;;
45296;SDS011;31040;51.622;10.420;2023-02-24T12:59:17;6.70;;;4.90;;
45296;SDS011;31040;51.622;10.420;2023-02-24T13:01:54;7.95;;;5.85;;
45296;SDS011;31040;51.622;10.420;2023-02-24T13:04:28;8.30;;;6.15;;
45296;SDS011;31040;51.622;10.420;2023-02-24T13:07:03;13.18;;;7.63;;
45296;SDS011;31040;51.622;10.420;2023-02-24T13:09:51;9.13;;;6.30;;
45296;SDS011;31040;51.622;10.420;2023-02-24T13:15:06;8.18;;;5.80;;
45296;SDS011;31040;51.622;10.420;2023-02-24T13:17:46;10.73;;;6.50;;
45296;SDS011;31040;51.622;10.420;2023-02-24T13:20:24;8.93;;;6.20;;
45296;SDS011;31040;51.622;10.420;2023-02-24T13:22:51;9.13;;;6.22;;
45296;SDS011;31040;51.622;10.420;2023-02-24T13:25:19;8.75;;;6.50;;
45296;SDS011;31040;51.622;10.420;2023-02-24T13:28:55;6.93;;;5.60;;
45296;SDS011;31040;51.622;10.420;2023-02-24T13:30:45;7.57;;;5.22;;
45296;SDS011;31040;51.622;10.420;2023-02-24T13:35:40;13.10;;;7.65;;
45296;SDS011;31040;51.622;10.420;2023-02-24T13:39:03;17.15;;;10.90;;
45296;SDS011;31040;51.622;10.420;2023-02-24T13:41:04;14.68;;;9.85;;
45296;SDS011;31040;51.622;10.420;2023-02-24T13:43:32;17.33;;;12.43;;
45296;SDS011;31040;51.622;10.420;2023-02-24T13:46:01;16.48;;;12.05;;
45296;SDS011;31040;51.622;10.420;2023-02-24T14:01:30;9.45;;;7.35;;
45296;SDS011;31040;51.622;10.420;2023-02-24T14:06:28;9.27;;;6.32;;
45296;SDS011;31040;51.622;10.420;2023-02-24T14:08:56;7.00;;;6.20;;
45296;SDS011;31040;51.622;10.420;2023-02-24T14:11:26;9.73;;;6.93;;
45296;SDS011;31040;51.622;10.420;2023-02-24T14:13:55;7.75;;;6.57;;
45296;SDS011;31040;51.622;10.420;2023-02-24T14:16:23;7.28;;;6.22;;
45296;SDS011;31040;51.622;10.420;2023-02-24T14:18:56;7.90;;;7.03;;
45296;SDS011;31040;51.622;10.420;2023-02-24T14:21:25;6.35;;;5.75;;
45296;SDS011;31040;51.622;10.420;2023-02-24T14:23:59;7.22;;;6.43;;
45296;SDS011;31040;51.622;10.420;2023-02-24T14:26:36;11.88;;;6.45;;
45296;SDS011;31040;51.622;10.420;2023-02-24T14:29:05;6.60;;;5.95;;
45296;SDS011;31040;51.622;10.420;2023-02-24T14:31:32;9.70;;;6.25;;
45296;SDS011;31040;51.622;10.420;2023-02-24T14:34:01;8.85;;;6.45;;
45296;SDS011;31040;51.622;10.420;2023-02-24T14:36:29;8.23;;;6.50;;
45296;SDS011;31040;51.622;10.420;2023-02-24T14:39:02;14.30;;;6.32;;
45296;SDS011;31040;51.622;10.420;2023-02-24T14:41:30;10.60;;;7.35;;
45296;SDS011;31040;51.622;10.420;2023-02-24T14:43:57;8.70;;;6.82;;
45296;SDS011;31040;51.622;10.420;2023-02-24T14:46:31;9.15;;;6.05;;
45296;SDS011;31040;51.622;10.420;2023-02-24T14:48:58;18.23;;;7.65;;
45296;SDS011;31040;51.622;10.420;2023-02-24T14:51:32;13.95;;;8.13;;
45296;SDS011;31040;51.622;10.420;2023-02-24T14:54:02;7.40;;;6.70;;
45296;SDS011;31040;51.622;10.420;2023-02-24T14:56:32;7.85;;;5.93;;
45296;SDS011;31040;51.622;10.420;2023-02-24T14:59:16;6.80;;;5.90;;
45296;SDS011;31040;51.622;10.420;2023-02-24T15:01:48;11.20;;;8.18;;
45296;SDS011;31040;51.622;10.420;2023-02-24T15:07:20;11.85;;;6.78;;
45296;SDS011;31040;51.622;10.420;2023-02-24T15:09:48;7.97;;;6.18;;
45296;SDS011;31040;51.622;10.420;2023-02-24T15:18:00;14.00;;;6.90;;
45296;SDS011;31040;51.622;10.420;2023-02-24T15:20:31;17.73;;;7.38;;
45296;SDS011;31040;51.622;10.420;2023-02-24T15:22:59;9.57;;;6.20;;
45296;SDS011;31040;51.622;10.420;2023-02-24T15:25:44;27.98;;;7.80;;
45296;SDS011;31040;51.622;10.420;2023-02-24T15:33:22;6.38;;;5.25;;
45296;SDS011;31040;51.622;10.420;2023-02-24T15:35:54;8.57;;;5.50;;
45296;SDS011;31040;51.622;10.420;2023-02-24T15:38:24;6.35;;;5.55;;
45296;SDS011;31040;51.622;10.420;2023-02-24T15:40:54;6.15;;;5.22;;
45296;SDS011;31040;51.622;10.420;2023-02-24T15:46:32;6.07;;;5.47;;
45296;SDS011;31040;51.622;10.420;2023-02-24T15:48:59;6.72;;;5.93;;
45296;SDS011;31040;51.622;10.420;2023-02-24T15:51:38;8.15;;;6.93;;
45296;SDS011;31040;51.622;10.420;2023-02-24T15:54:09;12.57;;;9.88;;
45296;SDS011;31040;51.622;10.420;2023-02-24T15:56:38;11.05;;;8.07;;
45296;SDS011;31040;51.622;10.420;2023-02-24T15:59:06;17.77;;;11.68;;
45296;SDS011;31040;51.622;10.420;2023-02-24T16:01:33;12.88;;;9.15;;
45296;SDS011;31040;51.622;10.420;2023-02-24T16:04:01;11.88;;;8.95;;
45296;SDS011;31040;51.622;10.420;2023-02-24T16:06:30;14.88;;;9.68;;
45296;SDS011;31040;51.622;10.420;2023-02-24T16:08:59;16.25;;;11.38;;
45296;SDS011;31040;51.622;10.420;2023-02-24T16:11:30;10.32;;;9.00;;
45296;SDS011;31040;51.622;10.420;2023-02-24T16:14:00;15.15;;;10.80;;
45296;SDS011;31040;51.622;10.420;2023-02-24T16:16:28;11.23;;;9.93;;
45296;SDS011;31040;51.622;10.420;2023-02-24T16:18:58;12.98;;;9.80;;
45296;SDS011;31040;51.622;10.420;2023-02-24T16:21:25;10.63;;;8.93;;
45296;SDS011;31040;51.622;10.420;2023-02-24T16:23:53;11.77;;;8.90;;
45296;SDS011;31040;51.622;10.420;2023-02-24T16:26:20;12.02;;;8.70;;
45296;SDS011;31040;51.622;10.420;2023-02-24T16:28:51;9.48;;;8.50;;
45296;SDS011;31040;51.622;10.420;2023-02-24T16:31:20;12.82;;;8.68;;
45296;SDS011;31040;51.622;10.420;2023-02-24T16:33:47;12.45;;;9.30;;
45296;SDS011;31040;51.622;10.420;2023-02-24T16:36:21;12.25;;;9.75;;
45296;SDS011;31040;51.622;10.420;2023-02-24T16:38:49;14.05;;;9.20;;
45296;SDS011;31040;51.622;10.420;2023-02-24T16:41:17;12.35;;;8.52;;
45296;SDS011;31040;51.622;10.420;2023-02-24T16:43:44;12.75;;;9.63;;
45296;SDS011;31040;51.622;10.420;2023-02-24T16:46:12;11.23;;;8.30;;
45296;SDS011;31040;51.622;10.420;2023-02-24T16:48:40;8.98;;;7.30;;
45296;SDS011;31040;51.622;10.420;2023-02-24T16:51:10;11.40;;;8.02;;
45296;SDS011;31040;51.622;10.420;2023-02-24T16:53:37;11.20;;;7.63;;
45296;SDS011;31040;51.622;10.420;2023-02-24T16:56:05;10.88;;;7.55;;
45296;SDS011;31040;51.622;10.420;2023-02-24T16:58:32;13.70;;;8.75;;
45296;SDS011;31040;51.622;10.420;2023-02-24T17:01:00;12.82;;;9.38;;
45296;SDS011;31040;51.622;10.420;2023-02-24T17:03:37;10.65;;;8.32;;
45296;SDS011;31040;51.622;10.420;2023-02-24T17:06:07;12.55;;;8.07;;
45296;SDS011;31040;51.622;10.420;2023-02-24T17:08:34;14.95;;;10.75;;
45296;SDS011;31040;51.622;10.420;2023-02-24T17:11:02;14.65;;;9.65;;
45296;SDS011;31040;51.622;10.420;2023-02-24T17:13:29;12.27;;;9.50;;
45296;SDS011;31040;51.622;10.420;2023-02-24T17:15:56;13.52;;;9.00;;
45296;SDS011;31040;51.622;10.420;2023-02-24T17:18:24;12.52;;;9.80;;
45296;SDS011;31040;51.622;10.420;2023-02-24T17:20:52;13.82;;;9.70;;